Time;durP1;ratioP1;P1;durP2;ratioP2;P2;SDS_P1;SDS_P2;PMS_P1;PMS_P2;Temp;Humidity;BMP_temperature;BMP_pressure;BME280_temperature;BME280_humidity;BME280_pressure;Samples;Min_cycle;Max_cycle;Signal;HPM_P1;HPM_P2
2021/05/20 00:00:31;;;;;;;2.40;1.30;;;;;;;11.26;58.53;100522.31;5048375;28;20673;-73
2021/05/20 00:03:00;;;;;;;2.53;1.50;;;;;;;10.93;59.00;100484.50;5051201;28;20606;-74
2021/05/20 00:05:28;;;;;;;2.10;1.10;;;;;;;11.20;58.61;100523.63;5049620;28;20299;-74
2021/05/20 00:07:55;;;;;;;1.50;1.40;;;;;;;11.25;58.81;100530.50;5049859;28;20235;-73
2021/05/20 00:10:23;;;;;;;2.20;1.53;;;;;;;11.22;58.64;100525.34;5052665;28;20206;-74
2021/05/20 00:12:51;;;;;;;923.47;634.47;;;;;;;11.22;58.64;100536.09;5045122;28;20237;-73
2021/05/20 00:15:19;;;;;;;428.70;186.37;;;;;;;11.22;58.36;100530.72;5050540;28;20189;-73
2021/05/20 00:17:47;;;;;;;51.57;22.90;;;;;;;11.05;58.76;100502.44;5041232;28;20205;-74
2021/05/20 00:20:16;;;;;;;18.07;9.53;;;;;;;11.23;58.83;100529.75;5050686;28;20191;-74
2021/05/20 00:22:44;;;;;;;6.73;3.77;;;;;;;11.24;58.84;100529.63;5050343;28;20303;-74
2021/05/20 00:25:13;;;;;;;13.53;7.70;;;;;;;11.06;59.10;100491.56;5044419;28;20314;-74
2021/05/20 00:27:40;;;;;;;4.67;3.33;;;;;;;11.29;58.99;100526.59;5046410;28;20228;-73
2021/05/20 00:30:10;;;;;;;6.40;3.37;;;;;;;11.24;59.34;100521.56;5055689;28;20827;-73
2021/05/20 00:32:38;;;;;;;4.53;2.47;;;;;;;10.75;59.20;100447.28;5050684;28;20308;-74
2021/05/20 00:35:08;;;;;;;5.83;3.40;;;;;;;11.16;59.65;100523.97;5052405;28;20678;-74
2021/05/20 00:37:37;;;;;;;4.60;3.00;;;;;;;11.13;59.87;100511.63;5051212;28;20201;-74
2021/05/20 00:40:06;;;;;;;6.77;4.10;;;;;;;11.15;60.18;100516.88;5049920;28;20193;-74
2021/05/20 00:42:34;;;;;;;4.20;2.70;;;;;;;11.15;59.71;100519.56;5048004;28;20588;-74
2021/05/20 00:45:04;;;;;;;3.83;2.13;;;;;;;11.13;59.90;100527.75;5051566;28;20788;-74
2021/05/20 00:47:34;;;;;;;3.20;1.90;;;;;;;11.12;59.95;100528.72;5048890;28;20205;-73
2021/05/20 00:50:04;;;;;;;3.40;1.37;;;;;;;11.09;60.33;100522.72;5049002;28;20202;-73
2021/05/20 00:52:32;;;;;;;3.23;2.00;;;;;;;11.11;59.46;100534.22;5048086;28;20204;-74
2021/05/20 00:55:03;;;;;;;2.30;2.00;;;;;;;11.02;60.00;100516.06;5045126;28;20193;-67
2021/05/20 00:57:31;;;;;;;2.03;1.80;;;;;;;11.03;59.64;100529.41;5046250;28;20232;-67
2021/05/20 01:00:05;;;;;;;2.90;1.70;;;;;;;10.99;60.08;100521.66;5047560;28;20224;-67
2021/05/20 01:02:35;;;;;;;2.83;1.90;;;;;;;10.96;60.80;100522.75;5051676;28;20284;-74
2021/05/20 01:05:04;;;;;;;1.73;1.50;;;;;;;10.62;60.96;100462.56;5053019;28;20231;-67
2021/05/20 01:07:32;;;;;;;4.23;1.80;;;;;;;10.92;60.23;100512.34;5057326;28;20260;-74
2021/05/20 01:10:00;;;;;;;5.57;1.77;;;;;;;10.89;60.20;100527.72;5047327;28;20228;-74
2021/05/20 01:12:28;;;;;;;1.83;1.40;;;;;;;10.86;60.31;100525.25;5065898;28;20332;-74
2021/05/20 01:14:56;;;;;;;3.17;1.80;;;;;;;10.82;60.50;100522.91;5051170;28;20201;-74
2021/05/20 01:17:25;;;;;;;2.47;1.60;;;;;;;10.88;60.95;100527.81;5051770;28;20966;-73
2021/05/20 01:19:53;;;;;;;2.27;1.77;;;;;;;10.75;60.44;100501.00;5051978;28;20205;-74
2021/05/20 01:22:22;;;;;;;1.87;1.60;;;;;;;10.85;60.66;100522.69;5049426;28;20233;-73
2021/05/20 01:24:51;;;;;;;3.43;1.53;;;;;;;10.82;61.12;100526.44;5050742;28;20241;-74
2021/05/20 01:27:18;;;;;;;1.63;1.53;;;;;;;10.76;61.37;100524.22;5050528;28;20644;-74
2021/05/20 01:29:46;;;;;;;2.37;1.70;;;;;;;10.74;61.29;100528.84;5042068;28;20304;-74
2021/05/20 01:32:14;;;;;;;2.27;1.63;;;;;;;10.79;60.79;100528.50;5047058;28;20271;-75
2021/05/20 01:34:42;;;;;;;1.30;1.20;;;;;;;10.77;60.74;100523.25;5050978;28;20292;-74
2021/05/20 01:37:10;;;;;;;3.37;1.50;;;;;;;10.74;60.71;100523.47;5047557;28;20298;-74
2021/05/20 01:39:39;;;;;;;2.10;1.73;;;;;;;10.70;60.83;100519.25;5045897;28;20228;-74
2021/05/20 01:42:09;;;;;;;2.57;1.67;;;;;;;10.68;60.53;100521.19;5049399;28;20235;-75
2021/05/20 01:44:36;;;;;;;2.03;1.70;;;;;;;10.67;60.68;100524.84;5049001;28;20329;-74
2021/05/20 01:47:05;;;;;;;1.93;1.70;;;;;;;10.55;60.72;100510.47;5053669;28;20664;-67
2021/05/20 01:49:33;;;;;;;5.23;1.63;;;;;;;10.66;59.96;100528.50;5044728;28;20193;-67
2021/05/20 01:52:00;;;;;;;2.17;1.80;;;;;;;10.62;60.03;100524.31;5043906;28;20213;-67
2021/05/20 01:54:28;;;;;;;1.40;1.30;;;;;;;10.47;60.44;100499.44;5047707;28;20206;-67
2021/05/20 01:56:57;;;;;;;1.60;1.50;;;;;;;10.56;60.07;100522.09;5049826;28;20229;-68
2021/05/20 01:59:25;;;;;;;2.97;1.60;;;;;;;10.57;60.20;100523.78;5051709;28;20208;-68
2021/05/20 02:01:53;;;;;;;3.13;1.93;;;;;;;10.53;60.62;100527.69;5050804;28;20207;-68
2021/05/20 02:04:21;;;;;;;1.50;1.40;;;;;;;10.48;60.44;100524.47;5042213;28;20213;-67
2021/05/20 02:06:48;;;;;;;2.57;1.80;;;;;;;10.48;60.71;100528.00;5056951;28;20205;-68
2021/05/20 02:09:16;;;;;;;1.70;1.60;;;;;;;10.45;60.86;100530.91;5051477;28;20646;-74
2021/05/20 02:11:44;;;;;;;1.73;1.50;;;;;;;10.42;60.77;100528.44;5047878;28;20232;-74
2021/05/20 02:14:13;;;;;;;4.33;1.70;;;;;;;10.39;60.71;100533.16;5050347;28;20291;-74
2021/05/20 02:16:41;;;;;;;2.87;1.70;;;;;;;10.36;60.55;100534.22;5053832;28;20197;-74
2021/05/20 02:19:09;;;;;;;5.43;1.40;;;;;;;10.36;60.65;100530.69;5051079;28;20392;-74
2021/05/20 02:21:37;;;;;;;3.70;1.90;;;;;;;10.30;61.02;100525.75;5049495;28;20221;-74
2021/05/20 02:24:06;;;;;;;1.57;1.30;;;;;;;10.26;61.12;100531.34;5053224;28;20270;-68
2021/05/20 02:26:34;;;;;;;2.83;1.73;;;;;;;10.30;60.75;100539.16;5047985;28;20229;-68
2021/05/20 02:29:02;;;;;;;1.73;1.63;;;;;;;10.25;60.69;100529.63;5051309;28;20193;-74
2021/05/20 02:31:30;;;;;;;1.70;1.60;;;;;;;10.20;60.99;100523.72;5051230;28;20578;-74
2021/05/20 02:33:58;;;;;;;1.93;1.73;;;;;;;10.21;60.53;100530.81;5045369;28;20229;-74
2021/05/20 02:36:26;;;;;;;2.30;1.60;;;;;;;9.93;61.18;100482.66;5053409;28;20588;-74
2021/05/20 02:38:54;;;;;;;2.23;1.67;;;;;;;10.17;60.94;100526.59;5044847;28;20738;-73
2021/05/20 02:41:21;;;;;;;1.90;1.40;;;;;;;10.17;60.48;100531.94;5053231;28;20205;-74
2021/05/20 02:43:49;;;;;;;2.73;1.70;;;;;;;10.14;60.41;100529.47;5057865;28;20203;-74
2021/05/20 02:46:17;;;;;;;3.40;1.40;;;;;;;10.13;60.52;100527.75;5052754;28;20232;-67
2021/05/20 02:48:45;;;;;;;3.87;1.80;;;;;;;10.18;60.73;100528.31;5051902;28;20228;-67
2021/05/20 02:51:13;;;;;;;2.33;1.40;;;;;;;10.16;60.94;100518.63;5052450;28;20327;-67
2021/05/20 02:53:41;;;;;;;2.37;1.73;;;;;;;10.17;60.75;100523.91;5046879;28;20211;-67
2021/05/20 02:56:08;;;;;;;1.73;1.50;;;;;;;10.11;60.58;100510.06;5055810;28;20306;-67
2021/05/20 02:58:37;;;;;;;2.40;1.70;;;;;;;10.22;60.47;100529.84;5055613;28;20205;-74
2021/05/20 03:01:05;;;;;;;2.60;1.77;;;;;;;10.24;60.36;100527.91;5045813;28;20200;-74
2021/05/20 03:03:33;;;;;;;1.73;1.63;;;;;;;10.29;60.57;100524.03;5063759;28;20200;-74
2021/05/20 03:06:01;;;;;;;2.20;1.60;;;;;;;10.27;60.63;100527.69;5053698;28;20232;-74
2021/05/20 03:08:29;;;;;;;1.87;1.30;;;;;;;10.27;60.88;100527.69;5048230;28;21076;-74
2021/05/20 03:10:57;;;;;;;2.57;1.77;;;;;;;10.16;60.70;100511.44;5056708;28;20198;-74
2021/05/20 03:13:25;;;;;;;1.97;1.60;;;;;;;9.98;61.12;100487.72;5049595;28;20249;-74
2021/05/20 03:15:53;;;;;;;4.47;1.80;;;;;;;10.23;60.47;100536.06;5052975;28;20291;-74
2021/05/20 03:18:21;;;;;;;2.30;1.70;;;;;;;10.21;61.10;100540.69;5051177;28;20208;-74
2021/05/20 03:20:49;;;;;;;2.07;1.80;;;;;;;10.21;60.81;100533.47;5053163;28;20198;-74
2021/05/20 03:23:18;;;;;;;1999.90;852.07;;;;;;;10.22;61.24;100540.56;5048896;28;20203;-74
2021/05/20 03:25:46;;;;;;;94.33;48.77;;;;;;;10.22;62.09;100529.84;5049690;28;20216;-74
2021/05/20 03:28:14;;;;;;;9.60;6.37;;;;;;;10.11;64.29;100516.28;5048557;28;20264;-74
2021/05/20 03:30:42;;;;;;;23.57;16.63;;;;;;;10.24;65.65;100529.72;5049846;28;20736;-74
2021/05/20 03:33:09;;;;;;;2.77;2.20;;;;;;;10.32;64.37;100537.22;5088364;27;20217;-74
2021/05/20 03:35:37;;;;;;;3.50;2.03;;;;;;;10.33;64.04;100530.91;5046228;28;20747;-74
2021/05/20 03:38:05;;;;;;;3.93;3.00;;;;;;;10.07;63.93;100493.28;5050449;28;20288;-74
2021/05/20 03:40:33;;;;;;;3.17;1.63;;;;;;;10.30;63.37;100526.59;5050836;28;20699;-74
2021/05/20 03:43:01;;;;;;;4.93;2.40;;;;;;;10.37;62.86;100537.75;5051038;28;20197;-74
2021/05/20 03:45:29;;;;;;;2.20;2.00;;;;;;;10.38;62.55;100539.47;5050232;28;20224;-74
2021/05/20 03:47:57;;;;;;;2.53;1.80;;;;;;;10.40;62.68;100534.84;5056699;28;20201;-74
2021/05/20 03:50:24;;;;;;;5.13;2.57;;;;;;;10.40;62.73;100538.41;5044621;28;20687;-74
2021/05/20 03:52:52;;;;;;;2.93;2.00;;;;;;;10.35;63.21;100526.28;5035957;28;20194;-67
2021/05/20 03:55:20;;;;;;;2.20;1.87;;;;;;;10.33;63.39;100529.06;5049319;28;20220;-74
2021/05/20 03:57:48;;;;;;;3.87;2.67;;;;;;;10.43;63.00;100537.34;5044967;28;20281;-74
2021/05/20 04:00:18;;;;;;;3.63;2.10;;;;;;;10.54;62.46;100529.38;5050072;28;20669;-67
2021/05/20 04:02:45;;;;;;;2.50;1.90;;;;;;;10.61;62.93;100530.66;5052390;28;20645;-66
2021/05/20 04:05:13;;;;;;;2.93;2.13;;;;;;;10.72;62.31;100524.53;5055027;28;20456;-66
2021/05/20 04:07:41;;;;;;;3.50;2.47;;;;;;;10.80;62.57;100530.22;5056740;28;20205;-67
2021/05/20 04:10:10;;;;;;;2.40;2.13;;;;;;;10.87;62.63;100531.47;5055255;28;20189;-67
2021/05/20 04:12:38;;;;;;;4.50;2.20;;;;;;;10.92;62.49;100528.44;5060684;28;20294;-67
2021/05/20 04:15:08;;;;;;;3.20;2.17;;;;;;;11.03;61.88;100532.09;5047268;28;20225;-67
2021/05/20 04:17:36;;;;;;;3.33;2.37;;;;;;;11.10;61.35;100535.19;5056905;28;20934;-68
2021/05/20 04:20:05;;;;;;;2.67;2.23;;;;;;;11.12;61.25;100519.81;5049093;28;20242;-74
2021/05/20 04:22:33;;;;;;;4.20;2.70;;;;;;;11.23;62.11;100533.31;5054786;28;20680;-73
2021/05/20 04:25:00;;;;;;;3.80;2.40;;;;;;;11.29;62.75;100527.47;5052020;28;20224;-67
2021/05/20 04:27:28;;;;;;;4.27;2.60;;;;;;;11.38;62.78;100526.81;5050497;28;20278;-68
2021/05/20 04:29:57;;;;;;;5.03;2.70;;;;;;;11.47;62.70;100538.69;5053531;28;20234;-67
2021/05/20 04:32:26;;;;;;;4.33;2.80;;;;;;;11.46;63.58;100535.16;5048873;28;20207;-67
2021/05/20 04:34:55;;;;;;;5.67;2.90;;;;;;;11.46;63.17;100529.75;5055879;28;20631;-67
2021/05/20 04:37:23;;;;;;;5.80;2.90;;;;;;;11.65;62.29;100547.22;5054907;28;20812;-68
2021/05/20 04:39:52;;;;;;;4.87;2.23;;;;;;;11.75;61.29;100535.63;5059933;28;20709;-67
2021/05/20 04:42:20;;;;;;;3.83;2.40;;;;;;;11.57;61.18;100502.06;5055245;28;20563;-68
2021/05/20 04:44:47;;;;;;;4.47;2.60;;;;;;;11.92;60.34;100537.06;5047983;28;20197;-67
2021/05/20 04:47:15;;;;;;;4.27;2.70;;;;;;;11.95;61.24;100536.84;5055031;28;20230;-68
2021/05/20 04:49:44;;;;;;;4.17;2.30;;;;;;;12.07;61.23;100530.50;5064489;28;20291;-66
2021/05/20 04:52:12;;;;;;;3.60;2.50;;;;;;;12.20;62.16;100537.63;5076797;28;20254;-66
2021/05/20 04:54:39;;;;;;;3.67;2.20;;;;;;;12.33;61.84;100535.69;5073126;28;20475;-67
2021/05/20 04:57:07;;;;;;;3.70;2.50;;;;;;;12.36;61.60;100517.47;5052333;28;20207;-66
2021/05/20 04:59:35;;;;;;;3.60;2.27;;;;;;;12.63;61.79;100543.19;5043956;28;20625;-67
2021/05/20 05:02:04;;;;;;;3.57;2.33;;;;;;;12.80;61.29;100542.69;5052510;28;20207;-73
2021/05/20 05:04:32;;;;;;;2.17;1.80;;;;;;;12.71;60.90;100494.94;5062447;28;20196;-67
2021/05/20 05:07:01;;;;;;;2.77;1.87;;;;;;;13.32;59.46;100539.34;5061533;28;20228;-67
2021/05/20 05:09:29;;;;;;;3.53;2.00;;;;;;;13.45;59.91;100551.81;5063183;28;20768;-72
2021/05/20 05:11:57;;;;;;;2.07;1.90;;;;;;;13.64;59.90;100552.84;5062904;28;20782;-72
2021/05/20 05:14:25;;;;;;;3.53;1.90;;;;;;;13.73;59.41;100537.72;5063279;28;20259;-67
2021/05/20 05:16:54;;;;;;;2.60;1.97;;;;;;;14.01;59.95;100555.13;5064919;28;20224;-72
2021/05/20 05:19:22;;;;;;;3.80;2.40;;;;;;;14.26;59.57;100557.47;5066685;28;20259;-67
2021/05/20 05:21:49;;;;;;;4.07;2.40;;;;;;;14.63;57.61;100556.13;5066228;28;20209;-67
2021/05/20 05:24:18;;;;;;;2.17;1.80;;;;;;;14.85;57.21;100551.41;5073365;28;20197;-73
2021/05/20 05:26:46;;;;;;;2.43;1.80;;;;;;;15.18;55.36;100552.94;5066677;28;20691;-73
2021/05/20 05:29:13;;;;;;;3.27;1.83;;;;;;;15.46;54.78;100551.28;5067038;28;20216;-72
2021/05/20 05:31:41;;;;;;;6.30;2.00;;;;;;;15.82;53.85;100547.06;5068121;28;20227;-67
2021/05/20 05:34:09;;;;;;;2.20;1.90;;;;;;;15.98;53.81;100545.66;5070122;28;20517;-73
2021/05/20 05:36:37;;;;;;;4.30;1.87;;;;;;;16.13;53.60;100544.19;5056303;28;20201;-72
2021/05/20 05:39:05;;;;;;;6.30;2.30;;;;;;;16.31;52.04;100520.78;5071525;28;20567;-73
2021/05/20 05:41:34;;;;;;;2.80;1.80;;;;;;;16.41;52.08;100559.56;5073485;28;20232;-73
2021/05/20 05:44:03;;;;;;;1.83;1.73;;;;;;;16.18;52.72;100541.91;5078052;28;20238;-67
2021/05/20 05:46:31;;;;;;;4.03;1.80;;;;;;;16.30;53.31;100548.91;5078073;28;20244;-67
2021/05/20 05:49:01;;;;;;;1.70;1.60;;;;;;;16.45;52.53;100557.41;5077785;28;20193;-73
2021/05/20 05:51:31;;;;;;;2.73;1.90;;;;;;;16.65;52.63;100555.50;5074757;28;20231;-73
2021/05/20 05:53:59;;;;;;;2.97;1.70;;;;;;;16.59;51.60;100531.69;5083636;28;20216;-73
2021/05/20 05:56:26;;;;;;;2.53;1.70;;;;;;;16.87;50.70;100548.91;5078574;28;20659;-74
2021/05/20 05:59:15;;;;;;;1.77;1.50;;;;;;;16.77;50.22;100551.63;5077292;28;20220;-73
2021/05/20 06:01:42;;;;;;;2.50;1.57;;;;;;;16.64;50.53;100546.53;5070856;28;20258;-73
2021/05/20 06:04:12;;;;;;;1.53;1.43;;;;;;;16.86;49.81;100558.91;5084021;28;20295;-73
2021/05/20 06:06:42;;;;;;;2.30;1.57;;;;;;;16.72;50.71;100552.09;5068739;28;20688;-73
2021/05/20 06:09:11;;;;;;;1.57;1.47;;;;;;;16.30;51.00;100521.78;5073085;28;20196;-73
2021/05/20 06:11:39;;;;;;;4.40;1.70;;;;;;;16.56;50.05;100550.97;5071325;28;20514;-67
2021/05/20 06:14:09;;;;;;;3.53;1.20;;;;;;;16.62;49.83;100556.66;5067268;28;20305;-67
2021/05/20 06:16:40;;;;;;;2.10;1.43;;;;;;;16.39;50.89;100558.84;5067424;28;20190;-67
2021/05/20 06:19:09;;;;;;;1.80;1.40;;;;;;;16.31;51.45;100558.72;5070098;28;20697;-67
2021/05/20 06:21:36;;;;;;;2.27;1.50;;;;;;;16.20;51.54;100564.28;5069729;28;20243;-67
2021/05/20 06:24:05;;;;;;;1.57;1.47;;;;;;;16.27;51.38;100546.47;5069307;28;20569;-68
2021/05/20 06:26:33;;;;;;;1.40;1.27;;;;;;;16.24;51.46;100554.06;5069106;28;20290;-68
2021/05/20 06:29:01;;;;;;;2.93;1.27;;;;;;;16.08;51.44;100547.34;5070014;28;20197;-67
2021/05/20 06:31:29;;;;;;;1.20;1.10;;;;;;;16.04;51.58;100554.06;5069043;28;20205;-67
2021/05/20 06:33:58;;;;;;;2.70;1.70;;;;;;;15.58;52.18;100540.31;5068545;28;20275;-67
2021/05/20 06:36:26;;;;;;;3.27;1.30;;;;;;;15.74;51.88;100554.22;5070847;28;20696;-67
2021/05/20 06:38:53;;;;;;;2.30;1.43;;;;;;;15.72;52.03;100561.63;5070109;28;20255;-67
2021/05/20 06:41:22;;;;;;;3.63;1.60;;;;;;;15.50;52.93;100559.97;5069670;28;20613;-67
2021/05/20 06:43:50;;;;;;;2.00;1.40;;;;;;;15.01;53.29;100521.16;5069916;28;20209;-68
2021/05/20 06:46:18;;;;;;;3.37;1.40;;;;;;;15.39;52.31;100557.41;5070410;28;20217;-67
2021/05/20 06:48:46;;;;;;;1.40;1.30;;;;;;;15.03;54.35;100559.75;5069949;28;20189;-67
2021/05/20 06:51:14;;;;;;;2.93;1.30;;;;;;;15.19;53.36;100560.06;5070575;28;20888;-67
2021/05/20 06:53:48;;;;;;;4.97;1.50;;;;;;;14.95;53.83;100542.47;5069840;28;20201;-67
2021/05/20 06:56:20;;;;;;;2.43;1.40;;;;;;;15.12;53.69;100561.63;5070567;28;20198;-68
2021/05/20 07:01:33;;;;;;;2.00;1.20;;;;;;;15.07;54.13;100566.59;5070288;28;20596;-67
2021/05/20 07:04:01;;;;;;;1.73;1.30;;;;;;;14.93;54.05;100550.72;5069270;28;20566;-67
2021/05/20 07:06:30;;;;;;;2.20;1.30;;;;;;;15.26;53.74;100563.06;5069316;28;20209;-67
2021/05/20 07:09:10;;;;;;;2.40;1.30;;;;;;;15.37;52.80;100562.09;5070544;28;20196;-67
2021/05/20 07:11:38;;;;;;;2.30;1.40;;;;;;;15.47;52.96;100560.25;5061652;28;20276;-67
2021/05/20 07:14:06;;;;;;;2.73;1.30;;;;;;;15.50;52.96;100557.28;5065313;28;20630;-67
2021/05/20 07:16:34;;;;;;;1.37;1.27;;;;;;;15.48;52.71;100565.53;5069153;28;20663;-67
2021/05/20 07:19:02;;;;;;;1.83;1.20;;;;;;;15.54;51.81;100564.13;5070202;28;20513;-67
2021/05/20 07:21:31;;;;;;;2.43;1.20;;;;;;;15.37;52.64;100562.09;5068913;28;20229;-67
2021/05/20 07:23:58;;;;;;;3.27;1.40;;;;;;;15.27;52.91;100562.06;5068500;28;20628;-67
2021/05/20 07:26:26;;;;;;;2.20;1.43;;;;;;;15.11;53.40;100559.03;5068257;28;20626;-68
2021/05/20 07:28:54;;;;;;;2.03;1.10;;;;;;;15.15;53.19;100558.63;5070280;28;20741;-67
2021/05/20 07:31:22;;;;;;;1.13;1.13;;;;;;;15.11;53.46;100559.91;5068758;28;20478;-67
2021/05/20 07:33:49;;;;;;;1.73;1.10;;;;;;;15.09;53.66;100556.47;5076743;28;20269;-68
2021/05/20 07:36:17;;;;;;;4.87;1.70;;;;;;;15.21;53.53;100557.22;5073747;28;20197;-67
2021/05/20 07:38:46;;;;;;;7.30;1.50;;;;;;;15.18;53.81;100558.34;5068250;28;20267;-68
2021/05/20 07:41:13;;;;;;;3.03;1.60;;;;;;;15.11;54.70;100556.34;5069625;28;20247;-68
2021/05/20 07:43:41;;;;;;;3.67;1.30;;;;;;;15.29;53.87;100549.25;5065493;28;20232;-68
2021/05/20 07:46:09;;;;;;;2.07;1.40;;;;;;;15.12;54.26;100542.69;5068921;28;20201;-68
2021/05/20 07:48:37;;;;;;;1.10;1.00;;;;;;;15.38;53.22;100553.84;5068475;28;20201;-68
2021/05/20 07:51:07;;;;;;;1.60;1.20;;;;;;;15.43;52.83;100553.44;5069472;28;20205;-67
2021/05/20 07:53:36;;;;;;;2.07;1.13;;;;;;;15.39;53.31;100555.56;5066865;28;20221;-67
2021/05/20 07:56:05;;;;;;;3.67;1.27;;;;;;;15.29;52.67;100556.50;5075855;28;20196;-68
2021/05/20 07:58:32;;;;;;;1.93;1.27;;;;;;;15.07;52.60;100500.81;5070875;28;20300;-68
2021/05/20 08:01:02;;;;;;;3.13;1.53;;;;;;;15.39;52.50;100552.00;5068404;28;20193;-69
2021/05/20 08:03:34;;;;;;;1.30;1.00;;;;;;;15.41;52.72;100547.31;5068298;28;20207;-68
2021/05/20 08:06:09;;;;;;;1.20;1.10;;;;;;;15.53;51.97;100557.00;5067732;28;20284;-68
2021/05/20 08:08:48;;;;;;;1.43;1.10;;;;;;;15.53;52.00;100557.00;5068571;28;20279;-68
2021/05/20 08:11:17;;;;;;;1.40;1.30;;;;;;;15.70;51.90;100553.63;5067665;28;20197;-67
2021/05/20 08:13:45;;;;;;;2.40;1.20;;;;;;;15.78;51.55;100523.13;5068963;28;20755;-74
2021/05/20 08:16:13;;;;;;;1.20;1.10;;;;;;;15.60;52.54;100516.72;5068357;28;20617;-67
2021/05/20 08:18:41;;;;;;;3.70;1.13;;;;;;;15.92;51.21;100543.50;5068221;28;20423;-74
2021/05/20 08:21:09;;;;;;;1.00;1.00;;;;;;;15.81;52.14;100549.94;5067154;28;20485;-67
2021/05/20 08:23:38;;;;;;;1.53;1.13;;;;;;;15.73;51.95;100514.59;5068977;28;20205;-68
2021/05/20 08:26:07;;;;;;;2.10;1.07;;;;;;;15.94;51.74;100536.13;5100650;28;20209;-74
2021/05/20 08:28:36;;;;;;;2.37;1.03;;;;;;;15.96;51.33;100542.25;5079147;28;20626;-74
2021/05/20 08:31:03;;;;;;;1.03;1.03;;;;;;;15.98;51.00;100537.53;5068967;28;20284;-67
2021/05/20 08:33:31;;;;;;;2.60;1.27;;;;;;;16.03;51.03;100535.25;5067120;28;20205;-74
2021/05/20 08:35:59;;;;;;;3.03;1.20;;;;;;;16.18;50.46;100541.06;5068222;28;20254;-67
2021/05/20 08:38:27;;;;;;;1.20;1.10;;;;;;;16.23;50.28;100542.34;5067378;28;20192;-68
2021/05/20 08:40:54;;;;;;;1.50;1.03;;;;;;;16.21;49.92;100544.31;5069025;28;20667;-68
2021/05/20 08:43:22;;;;;;;1.90;1.00;;;;;;;16.25;50.00;100537.63;5067039;28;20731;-68
2021/05/20 08:45:51;;;;;;;1.13;1.00;;;;;;;16.19;50.29;100543.63;5068274;28;20742;-67
2021/05/20 08:48:18;;;;;;;6.40;1.20;;;;;;;16.10;50.08;100542.63;5068765;28;20255;-74
2021/05/20 08:50:46;;;;;;;2.90;1.20;;;;;;;16.04;50.33;100540.50;5067821;28;20205;-74
2021/05/20 08:53:14;;;;;;;2.07;1.10;;;;;;;16.05;50.86;100541.38;5068238;28;20206;-74
2021/05/20 08:55:42;;;;;;;1.93;1.00;;;;;;;16.00;50.98;100555.34;5067219;28;20750;-68
2021/05/20 08:58:11;;;;;;;1.90;1.30;;;;;;;15.93;50.83;100537.13;5068030;28;20284;-68
2021/05/20 09:00:40;;;;;;;2.07;1.20;;;;;;;16.03;50.89;100546.09;5065154;28;20221;-67
2021/05/20 09:03:11;;;;;;;2.10;1.10;;;;;;;16.04;50.92;100545.09;5067942;28;20360;-68
2021/05/20 09:05:39;;;;;;;1.67;1.20;;;;;;;15.98;50.76;100548.38;5081430;28;20690;-74
2021/05/20 09:08:11;;;;;;;1.27;1.03;;;;;;;16.11;50.03;100541.63;5074298;28;20274;-74
2021/05/20 09:10:40;;;;;;;1.17;1.10;;;;;;;16.19;50.75;100542.75;5071618;28;20235;-68
2021/05/20 09:13:12;;;;;;;4.03;1.20;;;;;;;16.14;50.81;100535.06;5068012;28;20224;-68
2021/05/20 09:15:41;;;;;;;1.77;1.40;;;;;;;16.27;50.75;100527.50;5067086;28;20202;-74
2021/05/20 09:18:14;;;;;;;6.53;1.30;;;;;;;16.30;50.19;100529.06;5065747;28;20227;-68
2021/05/20 09:20:44;;;;;;;3.10;1.20;;;;;;;16.35;50.66;100524.06;5067861;28;20235;-68
2021/05/20 09:23:14;;;;;;;1.20;1.07;;;;;;;16.42;49.50;100523.31;5066901;28;20198;-68
2021/05/20 09:25:44;;;;;;;0.83;0.83;;;;;;;16.32;50.00;100522.50;5067321;28;20948;-74
2021/05/20 09:28:13;;;;;;;1.10;1.00;;;;;;;16.46;50.16;100524.72;5065435;28;20224;-74
2021/05/20 09:30:42;;;;;;;4.80;1.20;;;;;;;16.35;50.60;100516.78;5066452;28;20295;-74
2021/05/20 09:33:11;;;;;;;1.00;1.00;;;;;;;15.95;50.18;100443.03;5066477;28;20367;-74
2021/05/20 09:35:41;;;;;;;1.10;1.00;;;;;;;16.31;50.25;100487.41;5067712;28;20189;-74
2021/05/20 09:38:11;;;;;;;5.77;1.23;;;;;;;16.71;49.72;100519.69;5066609;28;20231;-68
2021/05/20 09:40:41;;;;;;;2.27;1.20;;;;;;;16.63;48.87;100504.13;5056044;28;20201;-74
2021/05/20 09:43:17;;;;;;;1.23;1.03;;;;;;;16.57;49.56;100522.88;5067751;28;20225;-74
2021/05/20 09:45:46;;;;;;;1.53;1.20;;;;;;;16.64;49.38;100523.97;5056762;28;20205;-74
2021/05/20 09:48:14;;;;;;;1.37;1.00;;;;;;;16.67;48.96;100512.84;5067099;28;20225;-68
2021/05/20 09:50:45;;;;;;;1.73;1.00;;;;;;;16.75;48.97;100526.53;5066425;28;20215;-68
2021/05/20 09:53:15;;;;;;;5.23;1.50;;;;;;;16.65;49.16;100521.13;5067701;28;20267;-74
2021/05/20 09:55:48;;;;;;;3.10;1.10;;;;;;;16.75;49.01;100515.66;5065173;28;20603;-68
2021/05/20 09:58:16;;;;;;;3.07;1.10;;;;;;;16.29;50.02;100492.13;5067199;28;20206;-68
2021/05/20 10:00:44;;;;;;;1.50;1.03;;;;;;;16.59;50.56;100519.00;5066546;28;20197;-67
2021/05/20 10:03:14;;;;;;;4.73;1.40;;;;;;;16.51;50.24;100488.19;5067067;28;20208;-74
2021/05/20 10:05:44;;;;;;;3.70;1.30;;;;;;;16.89;49.15;100517.91;5066152;28;20201;-74
2021/05/20 10:08:14;;;;;;;2.00;1.00;;;;;;;16.54;49.45;100458.09;5066127;28;20228;-74
2021/05/20 10:10:43;;;;;;;1.47;1.20;;;;;;;16.91;49.02;100515.03;5067607;28;20296;-74
2021/05/20 10:13:13;;;;;;;1.00;1.00;;;;;;;17.00;48.41;100520.41;5064595;28;20280;-74
2021/05/20 10:15:42;;;;;;;1.10;1.00;;;;;;;17.08;48.65;100519.66;5066602;28;20262;-74
2021/05/20 10:18:11;;;;;;;3.13;1.20;;;;;;;17.16;48.59;100517.06;5064359;28;20239;-67
2021/05/20 10:20:40;;;;;;;1.77;0.90;;;;;;;17.16;47.97;100518.91;5077160;28;20250;-73
2021/05/20 10:23:12;;;;;;;1.17;0.90;;;;;;;17.20;48.21;100521.16;5066900;28;20255;-73
2021/05/20 10:25:41;;;;;;;1.13;0.97;;;;;;;17.20;48.28;100512.16;5066912;28;20220;-73
2021/05/20 10:28:10;;;;;;;1.90;1.00;;;;;;;17.40;47.96;100513.72;5095872;28;20214;-73
2021/05/20 10:30:40;;;;;;;1.47;1.13;;;;;;;17.34;47.56;100506.22;5066069;28;20564;-74
2021/05/20 10:33:08;;;;;;;1.77;1.10;;;;;;;17.43;47.10;100502.56;5066962;28;20197;-73
2021/05/20 10:35:41;;;;;;;1.97;0.90;;;;;;;17.56;47.00;100508.47;5066959;28;20273;-74
2021/05/20 10:38:11;;;;;;;2.30;1.30;;;;;;;17.51;47.86;100512.69;5067129;28;20698;-73
2021/05/20 10:40:39;;;;;;;1.77;1.10;;;;;;;17.41;46.86;100493.72;5065144;28;20194;-73
2021/05/20 10:43:13;;;;;;;2.17;1.20;;;;;;;17.45;47.00;100456.25;5067518;28;20299;-73
2021/05/20 10:45:42;;;;;;;1.27;1.17;;;;;;;17.54;46.97;100501.50;5068376;28;20189;-68
2021/05/20 10:48:26;;;;;;;2.50;1.37;;;;;;;17.44;46.94;100504.25;5070616;28;20221;-66
2021/05/20 10:51:16;;;;;;;1.57;0.97;;;;;;;17.46;47.58;100506.84;5069834;28;20609;-66
2021/05/20 10:54:14;;;;;;;1.33;1.23;;;;;;;17.68;46.59;100507.25;5069208;28;20225;-65
2021/05/20 10:56:54;;;;;;;2.37;0.93;;;;;;;17.60;46.37;100488.16;5055359;28;20240;-66
2021/05/20 10:59:36;;;;;;;1.27;0.90;;;;;;;17.84;46.42;100503.00;5068712;28;20290;-67
2021/05/20 11:02:05;;;;;;;1.10;1.10;;;;;;;17.85;46.75;100507.41;5070840;28;20200;-67
2021/05/20 11:04:34;;;;;;;5.87;1.10;;;;;;;17.79;47.32;100508.06;5069075;28;20246;-73
2021/05/20 11:07:03;;;;;;;1.00;0.90;;;;;;;17.75;46.36;100495.75;5069561;28;20563;-73
2021/05/20 11:09:45;;;;;;;1.00;1.00;;;;;;;17.75;45.95;100495.75;5070924;28;20674;-74
2021/05/20 11:12:13;;;;;;;1.03;0.97;;;;;;;17.89;46.28;100504.22;5069624;28;20267;-74
2021/05/20 11:14:46;;;;;;;1.60;1.03;;;;;;;17.87;46.67;100505.41;5069942;28;20209;-74
2021/05/20 11:17:37;;;;;;;1.97;1.30;;;;;;;17.82;46.50;100505.88;5060196;28;20286;-74
2021/05/20 11:20:36;;;;;;;1.20;1.10;;;;;;;17.92;46.34;100501.19;5065633;28;20207;-74
2021/05/20 11:23:23;;;;;;;1.50;1.00;;;;;;;17.80;46.00;100488.88;5069037;28;20202;-74
2021/05/20 11:26:07;;;;;;;1.30;1.20;;;;;;;17.55;46.84;100501.34;5069389;28;20201;-68
2021/05/20 11:28:43;;;;;;;1.10;1.00;;;;;;;17.33;47.07;100464.63;5069473;28;20276;-67
2021/05/20 11:31:11;;;;;;;1.00;1.00;;;;;;;17.63;46.80;100495.13;5068928;28;20258;-67
2021/05/20 11:33:49;;;;;;;1.63;1.23;;;;;;;17.63;46.95;100493.25;5069048;28;20228;-68
2021/05/20 11:36:18;;;;;;;1.20;1.10;;;;;;;17.65;47.55;100493.97;5068746;28;20200;-67